Huvudsida
METAR-TAF:

METAR-TAF

Flygplatser :

Cervia, Italien

latitud: 44-13N, longitud: 012-18E, höjd: 6 m

Aktuellt väderrapport

Denna rapport gjordes för 1 timme och 12 minuter sedan, klockan 17:55 UTC
Vind 6 kt från sydost
Temperatur 9°C
Fuktighet 43%
Tryck 1020 hPa
Sikt 10 km eller mer
Inga moln under 1 500 m eller inga cumulonimbus

METAR: LIPC 281755Z 14006KT CAVOK 09/M03 Q1020 RMK SKC VIS MIN 9999 WIND THR11 14006KT WIND THR29 14006KT BLU

Tid: 20:07 (19:07 UTC)

Väderprognos

Denna rapport gjordes för 2 timmar och 7 minuter sedan, klockan 17:00 UTC
Prognos gäller från 28 kl. 18 UTC till 29 kl. 03 UTC
Vind 10 kt från ost/sydost
Sikt 10 km eller mer
Inga moln under 1 500 m eller inga cumulonimbus

TAF: LIPC 281700Z 2818/2903 11010KT CAVOK

Aktuella väderrapporter och prognoser från 4000 flygplatser (METAR- och TAF-rapporter).

De tillgängliga stationerna syns som gula och röda prickar på kartan.

För musen över prickarna för att se namnen på stationerna.

Klicka sedan för att få väderrapporter och prognoser.

För att ändra kartan: Klicka på de gröna knapparna med ett svart kors på för att zooma in; den gröna knappen med ett streck på för att zooma ut; eller på de gröna pilarna för angränsande kartor.


METAR-TAF: